Time;durP1;ratioP1;P1;durP2;ratioP2;P2;SDS_P1;SDS_P2;PMS_P1;PMS_P2;Temp;Humidity;BMP_temperature;BMP_pressure;BME280_temperature;BME280_humidity;BME280_pressure;Samples;Min_cycle;Max_cycle;Signal;HPM_P1;HPM_P2
2023/12/07 00:01:23;;;;;;;12.00;9.17;;;7.60;99.90;;;7.46;73.36;94608.88;5040513;28;20507;-61
2023/12/07 00:03:50;;;;;;;20.03;10.57;;;7.60;99.90;;;7.43;73.12;94594.25;5042614;28;20456;-58
2023/12/07 00:06:17;;;;;;;16.60;10.03;;;7.60;99.90;;;7.45;73.71;94601.97;5040351;28;20449;-58
2023/12/07 00:08:44;;;;;;;12.93;9.40;;;7.50;99.90;;;7.44;73.10;94602.97;5040703;28;20875;-61
2023/12/07 00:11:12;;;;;;;15.83;9.30;;;7.50;99.90;;;7.43;73.67;94607.34;5042250;28;21053;-58
2023/12/07 00:13:40;;;;;;;14.33;9.70;;;7.60;99.90;;;7.42;73.63;94616.16;5039926;28;20503;-56
2023/12/07 00:16:07;;;;;;;18.10;9.60;;;7.50;99.90;;;7.43;73.59;94607.34;5040948;28;20983;-58
2023/12/07 00:18:35;;;;;;;16.27;9.80;;;7.50;99.90;;;7.43;73.31;94607.34;5041941;28;20472;-58
2023/12/07 00:21:02;;;;;;;14.30;9.97;;;7.50;99.90;;;7.43;72.96;94611.75;5040050;28;20452;-62
2023/12/07 00:23:30;;;;;;;10.47;8.80;;;7.50;99.90;;;7.44;73.58;94609.00;5039694;28;20477;-61
2023/12/07 00:25:57;;;;;;;14.60;9.67;;;7.50;99.90;;;7.43;73.36;94603.91;5041602;28;20455;-58
2023/12/07 00:28:25;;;;;;;12.83;8.43;;;7.60;99.90;;;7.42;73.56;94600.47;5039656;28;21083;-61
2023/12/07 00:30:53;;;;;;;16.43;10.20;;;7.60;99.90;;;7.43;72.98;94611.75;5039334;28;20489;-58
2023/12/07 00:33:21;;;;;;;15.30;9.70;;;7.60;99.90;;;7.42;73.64;94610.94;5041746;28;20490;-61
2023/12/07 00:35:49;;;;;;;13.27;9.20;;;7.50;99.90;;;7.42;73.44;94616.16;5039777;28;20503;-62
2023/12/07 00:38:16;;;;;;;16.20;9.77;;;7.50;99.90;;;7.43;73.14;94612.56;5038931;28;20854;-61
2023/12/07 00:40:43;;;;;;;14.43;10.10;;;7.50;99.90;;;7.42;73.61;94608.31;5041665;28;20493;-58
2023/12/07 00:43:12;;;;;;;17.60;10.60;;;7.50;99.90;;;7.42;73.53;94610.94;5039856;28;20480;-57
2023/12/07 00:45:39;;;;;;;15.93;9.40;;;7.50;99.90;;;7.41;73.38;94609.25;5039044;28;20507;-57
2023/12/07 00:48:08;;;;;;;16.97;11.33;;;7.50;99.90;;;7.41;73.28;94604.03;5041126;28;20498;-61
2023/12/07 00:50:35;;;;;;;15.60;11.07;;;7.50;99.90;;;7.41;73.12;94609.25;5039994;28;20457;-58
2023/12/07 00:53:02;;;;;;;15.87;10.50;;;7.50;99.90;;;7.41;73.25;94601.41;5038411;28;20496;-58
2023/12/07 00:55:30;;;;;;;20.20;11.50;;;7.50;99.90;;;7.42;73.41;94608.31;5038524;28;20575;-61
2023/12/07 00:57:57;;;;;;;18.50;12.27;;;7.50;99.90;;;7.42;73.24;94608.31;5039567;28;20487;-57
2023/12/07 01:00:24;;;;;;;19.00;11.20;;;7.50;99.90;;;7.41;73.11;94604.03;5040898;28;20491;-61
2023/12/07 01:02:52;;;;;;;22.80;14.20;;;7.50;99.90;;;7.41;73.11;94603.22;5034350;28;20605;-57
2023/12/07 01:05:21;;;;;;;19.63;13.30;;;7.50;99.90;;;7.38;73.20;94604.28;5039895;28;20451;-57
2023/12/07 01:07:48;;;;;;;17.50;12.60;;;7.50;99.90;;;7.37;73.74;94605.22;5041135;28;20490;-61
2023/12/07 01:10:15;;;;;;;22.23;13.57;;;7.50;99.90;;;7.38;73.44;94600.84;5034573;28;20511;-56
2023/12/07 01:12:42;;;;;;;19.97;12.47;;;7.50;99.90;;;7.36;73.73;94607.03;5039162;28;20499;-57
2023/12/07 01:15:10;;;;;;;19.00;12.07;;;7.50;99.90;;;7.33;73.43;94593.38;5040766;28;20455;-61
2023/12/07 01:17:38;;;;;;;19.93;13.57;;;7.50;99.90;;;7.37;73.15;94597.38;5034003;28;20508;-61
2023/12/07 01:20:11;;;;;;;18.43;11.97;;;7.50;99.90;;;7.36;73.20;94606.22;5039523;28;20506;-58
2023/12/07 01:22:41;;;;;;;23.93;13.57;;;7.40;99.90;;;7.36;73.46;94598.34;5040675;28;20908;-57
2023/12/07 01:25:09;;;;;;;20.00;12.60;;;7.50;99.90;;;7.34;73.13;94602.88;5039261;28;20483;-57
2023/12/07 01:27:36;;;;;;;18.70;11.60;;;7.50;99.90;;;7.33;73.58;94606.47;5038192;28;20479;-60
2023/12/07 01:30:04;;;;;;;20.03;12.80;;;7.50;99.90;;;7.32;73.18;94599.56;5037763;28;21192;-56
2023/12/07 01:32:32;;;;;;;19.70;14.10;;;7.50;99.90;;;7.30;73.19;94599.69;5039334;28;20503;-57
2023/12/07 01:34:59;;;;;;;19.83;13.00;;;7.50;99.90;;;7.30;73.34;94596.25;5040438;28;20467;-61
2023/12/07 01:37:27;;;;;;;23.70;14.50;;;7.40;99.90;;;7.29;73.43;94600.63;5034310;28;20526;-58
2023/12/07 01:39:56;;;;;;;19.93;13.77;;;7.40;99.90;;;7.29;73.24;94595.41;5039366;28;20533;-60
2023/12/07 01:42:23;;;;;;;21.80;14.07;;;7.40;99.90;;;7.29;73.32;94600.63;5040526;28;20483;-57
2023/12/07 01:44:50;;;;;;;22.97;14.90;;;7.40;99.90;;;7.30;73.07;94586.59;5037936;28;20471;-58
2023/12/07 01:47:18;;;;;;;22.70;12.80;;;7.40;99.90;;;7.29;73.51;94587.56;5038738;28;20995;-62
2023/12/07 01:49:45;;;;;;;22.33;11.30;;;7.40;99.90;;;7.31;73.05;94582.19;5040976;28;20452;-58
2023/12/07 01:52:13;;;;;;;21.40;12.27;;;7.40;99.90;;;7.32;73.10;94589.09;5037876;28;20568;-61
2023/12/07 01:54:40;;;;;;;18.97;11.27;;;7.40;99.90;;;7.32;73.11;94587.28;5037653;28;20461;-60
2023/12/07 01:57:09;;;;;;;18.60;12.23;;;7.40;99.90;;;7.32;72.95;94581.25;5037423;28;20484;-62
2023/12/07 01:59:36;;;;;;;15.93;11.10;;;7.40;99.90;;;7.32;73.18;94586.47;5039873;28;20856;-61
2023/12/07 02:02:04;;;;;;;17.10;10.33;;;7.40;99.90;;;7.32;73.61;94583.88;5039239;28;21276;-58
2023/12/07 02:04:31;;;;;;;15.10;9.37;;;7.50;99.90;;;7.32;73.14;94578.63;5037741;28;20579;-58
2023/12/07 02:06:59;;;;;;;22.40;10.77;;;7.50;99.90;;;7.32;73.08;94581.25;5040285;28;20479;-59
2023/12/07 02:09:26;;;;;;;13.10;8.90;;;7.40;99.90;;;7.33;72.95;94588.16;5039228;28;20459;-62
2023/12/07 02:11:54;;;;;;;13.50;9.87;;;7.40;99.90;;;7.33;73.55;94575.88;5037332;28;20493;-61
2023/12/07 02:14:22;;;;;;;18.00;10.57;;;7.50;99.90;;;7.33;73.25;94581.13;5039921;28;20482;-60
2023/12/07 02:16:52;;;;;;;12.20;9.27;;;7.50;99.90;;;7.33;73.42;94581.13;5039192;28;20471;-57
2023/12/07 02:19:35;;;;;;;14.43;9.83;;;7.50;99.90;;;7.33;73.56;94585.53;5037347;28;20857;-61
2023/12/07 02:22:05;;;;;;;15.80;10.30;;;7.50;99.90;;;7.35;73.08;94583.59;5037186;28;21078;-57
2023/12/07 02:24:34;;;;;;;12.80;8.73;;;7.50;99.90;;;7.36;73.59;94590.50;5039243;28;20450;-62
2023/12/07 02:27:04;;;;;;;12.60;8.20;;;7.50;99.90;;;7.35;73.39;94583.59;5039861;28;20526;-63
2023/12/07 02:29:31;;;;;;;12.77;8.20;;;7.50;99.90;;;7.36;73.46;94580.03;5034909;28;20567;-61
2023/12/07 02:31:58;;;;;;;15.63;8.80;;;7.50;99.90;;;7.36;73.74;94580.88;5042619;28;20556;-61
2023/12/07 02:34:26;;;;;;;15.23;9.90;;;7.50;99.90;;;7.39;73.03;94592.03;5044111;28;20564;-58
2023/12/07 02:36:53;;;;;;;14.23;9.97;;;7.50;99.90;;;7.38;73.27;94588.59;5037881;28;20468;-62
2023/12/07 02:39:20;;;;;;;13.23;9.67;;;7.50;99.90;;;7.38;73.30;94587.78;5042499;28;20517;-58
2023/12/07 02:41:48;;;;;;;15.20;10.27;;;7.50;99.90;;;7.39;72.98;94573.72;5043544;28;20479;-60
2023/12/07 02:44:16;;;;;;;14.70;11.17;;;7.50;99.90;;;7.40;72.83;94570.16;5037457;28;20468;-60
2023/12/07 02:46:44;;;;;;;16.20;10.47;;;7.50;99.90;;;7.39;72.70;94576.31;5041965;28;20589;-58
2023/12/07 02:49:11;;;;;;;15.73;11.37;;;7.50;99.90;;;7.39;73.11;94573.72;5043517;28;20447;-58
2023/12/07 02:51:38;;;;;;;18.80;9.80;;;7.50;99.90;;;7.38;72.75;94570.28;5037543;28;20495;-57
2023/12/07 02:54:06;;;;;;;17.67;11.10;;;7.50;99.90;;;7.38;73.13;94572.88;5042191;28;20452;-56
2023/12/07 02:56:33;;;;;;;16.50;10.37;;;7.50;99.90;;;7.39;73.31;94578.94;5043079;28;20963;-57
2023/12/07 02:59:01;;;;;;;16.53;11.93;;;7.50;99.90;;;7.38;72.99;94578.13;5037591;28;20793;-61
2023/12/07 03:01:29;;;;;;;16.43;10.50;;;7.50;99.90;;;7.37;72.87;94568.59;5042077;28;20454;-61
2023/12/07 03:03:57;;;;;;;17.87;11.00;;;7.50;99.90;;;7.34;73.24;94568.84;5043519;28;20546;-62
2023/12/07 03:06:24;;;;;;;16.90;11.57;;;7.50;99.90;;;7.31;72.40;94580.44;5040729;28;20463;-57
2023/12/07 03:08:51;;;;;;;18.87;11.97;;;7.50;99.90;;;7.31;72.66;94577.81;5041985;28;20447;-59
2023/12/07 03:11:19;;;;;;;17.47;11.00;;;7.40;99.90;;;7.31;72.70;94576.97;5043402;28;20531;-60
2023/12/07 03:13:46;;;;;;;16.17;10.93;;;7.50;99.90;;;7.30;72.66;94580.56;5040642;28;20994;-61
2023/12/07 03:16:13;;;;;;;17.60;10.70;;;7.40;99.90;;;7.28;73.07;94580.69;5041418;28;20531;-58
2023/12/07 03:18:42;;;;;;;16.03;12.10;;;7.40;99.90;;;7.28;72.72;94583.28;5043826;28;20452;-63
2023/12/07 03:21:09;;;;;;;16.90;12.20;;;7.40;99.90;;;7.27;73.16;94584.25;5037624;28;20452;-59
2023/12/07 03:23:37;;;;;;;15.77;11.50;;;7.40;99.90;;;7.27;73.17;94573.78;5041068;28;20590;-59
2023/12/07 03:26:05;;;;;;;17.57;11.40;;;7.40;99.90;;;7.26;72.55;94579.13;5043290;28;20451;-61
2023/12/07 03:28:32;;;;;;;18.83;11.53;;;7.40;99.90;;;7.25;72.79;94582.69;5040857;28;20469;-57
2023/12/07 03:31:00;;;;;;;19.90;11.37;;;7.40;99.90;;;7.25;73.20;94586.16;5041374;28;20452;-56
2023/12/07 03:33:27;;;;;;;18.87;12.07;;;7.40;99.90;;;7.24;72.67;94589.72;5042610;28;20529;-57
2023/12/07 03:35:56;;;;;;;17.67;11.30;;;7.40;99.90;;;7.24;72.62;94586.28;5040281;28;20457;-57
2023/12/07 03:38:23;;;;;;;16.30;11.07;;;7.40;99.90;;;7.24;73.03;94591.53;5040612;28;20558;-56
2023/12/07 03:40:51;;;;;;;17.37;10.67;;;7.40;99.90;;;7.24;73.22;94587.13;5042537;28;20459;-58
2023/12/07 03:43:20;;;;;;;13.53;9.53;;;7.40;99.90;;;7.24;72.57;94600.19;5040525;28;20476;-56
2023/12/07 03:45:47;;;;;;;15.40;10.37;;;7.40;99.90;;;7.25;73.10;94591.41;5040433;28;20456;-57
2023/12/07 03:48:14;;;;;;;15.83;9.80;;;7.40;99.90;;;7.26;72.73;94597.44;5042862;28;20495;-59
2023/12/07 03:50:42;;;;;;;15.80;9.30;;;7.40;99.90;;;7.27;73.48;94596.50;5040574;28;20449;-57
2023/12/07 03:53:12;;;;;;;17.40;10.30;;;7.40;99.90;;;7.26;73.41;94593.03;5040478;28;20504;-60
2023/12/07 03:55:39;;;;;;;14.37;9.97;;;7.40;99.90;;;7.26;73.31;94595.66;5036128;28;20543;-59
2023/12/07 03:58:07;;;;;;;18.00;10.53;;;7.40;99.90;;;7.28;72.90;94587.69;5040973;28;20479;-62
2023/12/07 04:00:34;;;;;;;13.87;9.87;;;7.40;99.90;;;7.27;72.82;94592.09;5041977;28;20460;-62
2023/12/07 04:03:01;;;;;;;14.73;10.00;;;7.40;99.90;;;7.29;73.00;94589.34;5039773;28;21023;-57
2023/12/07 04:05:28;;;;;;;17.50;11.57;;;7.40;99.90;;;7.29;73.03;94589.34;5042501;28;20462;-63
2023/12/07 04:07:56;;;;;;;18.17;11.80;;;7.40;99.90;;;7.31;73.28;94592.66;5042601;28;20460;-59
2023/12/07 04:10:25;;;;;;;16.90;11.43;;;7.40;99.90;;;7.32;72.65;94591.72;5039504;28;20457;-62
2023/12/07 04:12:52;;;;;;;17.83;10.97;;;7.50;99.90;;;7.31;72.74;94603.13;5040853;28;21015;-58
2023/12/07 04:15:20;;;;;;;21.60;12.07;;;7.40;99.90;;;7.31;73.07;94597.88;5041952;28;20501;-59
2023/12/07 04:17:47;;;;;;;18.73;12.33;;;7.40;99.90;;;7.30;72.70;94596.25;5035996;28;20472;-61
2023/12/07 04:20:15;;;;;;;17.27;11.60;;;7.40;99.90;;;7.31;72.92;94597.88;5040817;28;20507;-58
2023/12/07 04:22:43;;;;;;;18.13;12.30;;;7.40;99.90;;;7.31;72.93;94603.13;5041578;28;20483;-58
2023/12/07 04:25:10;;;;;;;18.57;12.57;;;7.40;99.90;;;7.32;72.82;94610.84;5035822;28;20502;-58
2023/12/07 04:27:39;;;;;;;17.17;11.20;;;7.40;99.90;;;7.33;72.66;94611.69;5038788;28;20472;-58
2023/12/07 04:30:08;;;;;;;15.97;10.57;;;7.50;99.90;;;7.32;73.17;94604.78;5039159;28;20444;-59
2023/12/07 04:32:35;;;;;;;15.30;10.90;;;7.50;99.90;;;7.32;72.67;94620.50;5041322;28;20495;-57
2023/12/07 04:35:03;;;;;;;20.97;13.10;;;7.40;99.90;;;7.32;72.50;94613.47;5040663;28;20960;-62
2023/12/07 04:37:30;;;;;;;20.30;12.50;;;7.50;99.90;;;7.32;72.44;94625.72;5038470;28;20583;-61
2023/12/07 04:39:57;;;;;;;17.90;12.50;;;7.40;99.90;;;7.32;72.90;94626.53;5040956;28;20960;-58
2023/12/07 04:42:24;;;;;;;24.87;13.50;;;7.50;99.90;;;7.32;72.43;94628.34;5040507;28;20469;-62
2023/12/07 04:44:53;;;;;;;16.33;11.30;;;7.50;99.90;;;7.32;72.74;94626.53;5039128;28;20445;-61
2023/12/07 04:47:21;;;;;;;18.67;12.73;;;7.40;99.90;;;7.32;72.68;94625.72;5041371;28;20470;-57
2023/12/07 04:49:48;;;;;;;20.13;13.20;;;7.40;99.90;;;7.31;72.80;94624.06;5040887;28;20458;-58
2023/12/07 04:52:15;;;;;;;19.57;11.97;;;7.50;99.90;;;7.30;72.43;94623.22;5038336;28;20497;-58
2023/12/07 04:54:42;;;;;;;19.10;12.77;;;7.40;99.90;;;7.31;72.76;94629.28;5041346;28;20462;-56
2023/12/07 04:57:09;;;;;;;20.10;12.50;;;7.40;99.90;;;7.28;72.43;94635.63;5040660;28;20480;-57
2023/12/07 04:59:37;;;;;;;19.17;12.73;;;7.40;99.90;;;7.29;72.76;94636.44;5038904;28;20481;-57
2023/12/07 05:02:06;;;;;;;21.23;12.13;;;7.40;99.90;;;7.28;72.91;94640.84;5040427;28;20555;-59
2023/12/07 05:04:33;;;;;;;27.97;14.07;;;7.40;99.90;;;7.30;72.57;94643.34;5040011;28;20891;-58
2023/12/07 05:07:01;;;;;;;19.63;12.43;;;7.40;99.90;;;7.30;72.51;94630.25;5038737;28;20941;-56
2023/12/07 05:09:30;;;;;;;23.10;16.20;;;7.40;99.90;;;7.30;72.62;94635.50;5040771;28;20551;-59
2023/12/07 05:11:58;;;;;;;18.77;12.97;;;7.40;99.90;;;7.30;72.67;94638.94;5040945;28;20513;-57
2023/12/07 05:14:25;;;;;;;20.90;13.07;;;7.40;99.90;;;7.30;73.41;94635.50;5038611;28;20512;-63
2023/12/07 05:16:55;;;;;;;24.03;14.13;;;7.40;99.90;;;7.31;72.49;94642.38;5040155;28;20479;-57
2023/12/07 05:19:24;;;;;;;20.43;11.83;;;7.50;99.90;;;7.30;72.50;94643.34;5040850;28;20990;-58
2023/12/07 05:21:52;;;;;;;18.27;13.13;;;7.40;99.90;;;7.29;73.08;94644.28;5035200;28;20473;-57
2023/12/07 05:24:19;;;;;;;18.77;11.87;;;7.40;99.90;;;7.29;72.53;94637.25;5039738;28;20452;-59
2023/12/07 05:26:47;;;;;;;20.30;12.43;;;7.40;99.90;;;7.29;72.93;94645.09;5040897;28;20468;-64
2023/12/07 05:29:14;;;;;;;15.70;11.63;;;7.40;99.90;;;7.29;72.58;94644.28;5039017;28;20457;-58
2023/12/07 05:31:43;;;;;;;17.23;11.47;;;7.40;99.90;;;7.28;72.77;94653.06;5038994;28;20480;-58
2023/12/07 05:34:10;;;;;;;18.57;11.50;;;7.40;99.90;;;7.27;72.99;94648.81;5039844;28;20598;-60
2023/12/07 05:36:40;;;;;;;17.27;11.97;;;7.40;99.90;;;7.25;73.47;94645.47;5038839;28;20465;-58
2023/12/07 05:39:07;;;;;;;18.80;11.63;;;7.40;99.90;;;7.25;72.38;94655.94;5038836;28;20461;-60
2023/12/07 05:41:35;;;;;;;20.83;11.03;;;7.40;99.90;;;7.25;72.29;94662.03;5040659;28;20481;-61
2023/12/07 05:44:03;;;;;;;19.37;12.10;;;7.40;99.90;;;7.27;72.42;94660.09;5038682;28;20502;-58
2023/12/07 05:46:31;;;;;;;18.73;11.57;;;7.40;99.90;;;7.27;72.81;94652.25;5037489;28;20833;-61
2023/12/07 05:48:58;;;;;;;14.20;10.40;;;7.40;99.90;;;7.27;72.72;94660.09;5040708;28;20523;-60
2023/12/07 05:51:25;;;;;;;20.17;10.77;;;7.40;99.90;;;7.28;72.92;94666.16;5039186;28;20449;-61
2023/12/07 05:53:54;;;;;;;17.97;11.70;;;7.40;99.90;;;7.29;72.84;94667.81;5038857;28;20491;-57
2023/12/07 05:56:22;;;;;;;15.00;10.33;;;7.40;99.90;;;7.28;72.44;94666.16;5040962;28;20447;-61
2023/12/07 05:58:49;;;;;;;18.10;12.30;;;7.40;99.90;;;7.29;72.36;94667.81;5039205;28;20452;-61
2023/12/07 06:01:18;;;;;;;18.73;11.97;;;7.40;99.90;;;7.29;72.71;94670.44;5038157;28;20463;-61
2023/12/07 06:03:46;;;;;;;16.67;11.33;;;7.40;99.90;;;7.30;72.82;94674.72;5038394;28;20452;-62
2023/12/07 06:06:13;;;;;;;19.33;10.67;;;7.40;99.90;;;7.31;72.24;94676.38;5043324;28;20459;-61
2023/12/07 06:08:41;;;;;;;17.07;12.43;;;7.40;99.90;;;7.31;72.38;94674.59;5044750;28;20451;-62
2023/12/07 06:11:10;;;;;;;36.07;13.33;;;7.40;99.90;;;7.33;72.98;94679.72;5044526;28;20486;-59
2023/12/07 06:13:37;;;;;;;18.33;11.87;;;7.50;99.90;;;7.36;72.91;94682.06;5043440;28;20500;-62
2023/12/07 06:16:05;;;;;;;16.10;11.30;;;7.40;99.90;;;7.38;72.61;94677.53;5041909;28;20965;-62
2023/12/07 06:18:32;;;;;;;17.77;11.53;;;7.50;99.90;;;7.40;72.69;94673.00;5038717;28;20476;-62
2023/12/07 06:21:00;;;;;;;18.03;12.83;;;7.50;99.90;;;7.43;72.17;94678.00;5042805;28;20447;-62
2023/12/07 06:23:27;;;;;;;20.73;12.90;;;7.50;99.90;;;7.45;72.28;94672.63;5044366;28;20546;-61
2023/12/07 06:25:54;;;;;;;18.23;10.60;;;7.60;99.90;;;7.48;72.47;94672.38;5038309;28;20454;-61
2023/12/07 06:28:23;;;;;;;17.63;11.67;;;7.60;99.90;;;7.50;72.36;94676.53;5042686;28;20468;-58
2023/12/07 06:30:50;;;;;;;18.20;12.30;;;7.60;99.90;;;7.53;71.93;94678.09;5044171;28;20451;-59
2023/12/07 06:33:17;;;;;;;16.50;10.13;;;7.70;99.90;;;7.56;72.32;94685.69;5040268;28;20694;-58
2023/12/07 06:35:46;;;;;;;14.70;10.37;;;7.70;99.90;;;7.59;71.98;94684.59;5042709;28;20455;-58
2023/12/07 06:38:13;;;;;;;13.17;9.27;;;7.70;99.90;;;7.61;72.37;94687.94;5044487;28;20478;-61
2023/12/07 06:40:41;;;;;;;20.20;10.00;;;7.70;99.90;;;7.64;71.92;94690.28;5042271;28;20587;-62
2023/12/07 06:43:08;;;;;;;14.70;9.30;;;7.70;99.90;;;7.66;71.83;94686.56;5042345;28;21007;-59
2023/12/07 06:45:36;;;;;;;10.50;9.13;;;7.80;99.90;;;7.68;72.07;94689.06;5044114;28;20950;-61
2023/12/07 06:48:05;;;;;;;15.30;9.90;;;7.80;99.90;;;7.69;72.28;94690.72;5041989;28;21008;-61
2023/12/07 06:50:32;;;;;;;14.17;10.07;;;7.80;99.90;;;7.72;72.04;94695.72;5042049;28;20486;-62
2023/12/07 06:53:00;;;;;;;14.00;10.00;;;7.80;99.90;;;7.74;71.88;94696.41;5044190;28;20883;-59
2023/12/07 06:55:28;;;;;;;17.43;10.33;;;7.80;99.90;;;7.75;71.75;94700.69;5041786;28;20948;-60
2023/12/07 06:57:55;;;;;;;19.53;11.60;;;7.80;99.90;;;7.76;71.73;94710.22;5041552;28;20490;-60
2023/12/07 07:00:24;;;;;;;19.97;12.87;;;7.80;99.90;;;7.76;71.90;94702.38;5043764;28;20455;-61
2023/12/07 07:02:53;;;;;;;22.87;14.03;;;7.80;99.90;;;7.77;71.28;94698.78;5040672;28;20469;-61
2023/12/07 07:05:20;;;;;;;14.30;9.60;;;7.90;99.90;;;7.76;71.43;94712.00;5041323;28;20802;-59
2023/12/07 07:07:48;;;;;;;15.83;10.93;;;7.80;99.90;;;7.74;71.69;94704.25;5043895;28;20781;-61
2023/12/07 07:10:15;;;;;;;13.80;9.87;;;7.80;99.90;;;7.74;71.72;94695.59;5041993;28;20507;-60
2023/12/07 07:12:42;;;;;;;17.97;10.27;;;7.80;99.90;;;7.74;71.75;94703.44;5041096;28;20479;-59
2023/12/07 07:15:10;;;;;;;13.33;9.93;;;7.80;99.90;;;7.73;71.73;94713.09;5043180;28;20456;-59
2023/12/07 07:17:38;;;;;;;14.63;9.83;;;7.80;99.90;;;7.72;71.22;94706.19;5041572;28;20472;-59
2023/12/07 07:20:08;;;;;;;14.63;8.50;;;7.80;99.90;;;7.70;71.69;94713.34;5040795;28;20449;-59
2023/12/07 07:22:36;;;;;;;13.20;8.63;;;7.80;99.90;;;7.67;71.08;94716.22;5037557;28;20471;-60
2023/12/07 07:25:04;;;;;;;12.47;9.00;;;7.80;99.90;;;7.65;71.38;94718.09;5041749;28;20456;-59
2023/12/07 07:27:31;;;;;;;11.47;8.57;;;7.80;99.90;;;7.63;71.83;94720.03;5043287;28;20495;-59
2023/12/07 07:29:59;;;;;;;6.30;5.73;;;7.80;99.90;;;7.63;72.58;94720.03;5040835;28;20460;-59
2023/12/07 07:32:26;;;;;;;14.60;5.43;;;7.80;99.90;;;7.64;72.05;94722.53;5040619;28;20541;-61
2023/12/07 07:34:54;;;;;;;5.93;5.33;;;7.80;99.90;;;7.59;71.32;94724.69;5042932;28;21080;-58
2023/12/07 07:37:23;;;;;;;4.63;4.23;;;7.70;99.90;;;7.54;70.95;94730.31;5040623;28;20496;-63
2023/12/07 07:39:51;;;;;;;4.50;3.70;;;7.70;99.90;;;7.51;70.79;94730.56;5040966;28;20453;-57
2023/12/07 07:42:18;;;;;;;6.40;4.07;;;7.70;99.90;;;7.47;71.47;94739.59;5043571;28;20475;-61
2023/12/07 07:44:45;;;;;;;4.20;3.90;;;7.60;99.90;;;7.45;70.89;94741.50;5041120;28;20464;-61
2023/12/07 07:47:12;;;;;;;3.93;3.63;;;7.60;99.90;;;7.40;71.24;94730.56;5040939;28;20476;-60
2023/12/07 07:49:40;;;;;;;4.40;4.07;;;7.50;99.90;;;7.33;70.87;94738.09;5042871;28;20443;-56
2023/12/07 07:52:07;;;;;;;3.17;2.97;;;7.50;99.90;;;7.33;71.22;94737.28;5040793;28;20569;-61
2023/12/07 07:54:36;;;;;;;3.70;3.40;;;7.50;99.90;;;7.30;70.83;94737.50;5043633;28;20502;-61
2023/12/07 07:57:04;;;;;;;5.03;3.67;;;7.50;99.90;;;7.28;70.62;94760.34;5039822;28;20480;-59
2023/12/07 07:59:31;;;;;;;3.13;2.80;;;7.40;99.90;;;7.24;70.63;94754.53;5042026;28;20545;-61
2023/12/07 08:01:59;;;;;;;3.73;3.50;;;7.40;99.90;;;7.24;70.75;94753.69;5041214;28;20562;-61
2023/12/07 08:04:27;;;;;;;4.73;3.20;;;7.30;99.90;;;7.21;70.43;94759.19;5039773;28;20901;-59
2023/12/07 08:06:55;;;;;;;2.60;2.40;;;7.40;99.90;;;7.20;70.75;94762.72;5041269;28;20470;-57
2023/12/07 08:09:22;;;;;;;3.43;3.13;;;7.30;99.90;;;7.15;70.70;94756.06;5041975;28;20896;-60
2023/12/07 08:11:51;;;;;;;3.53;3.23;;;7.30;99.90;;;7.13;70.91;94765.84;5039663;28;20473;-61
2023/12/07 08:14:18;;;;;;;3.40;3.20;;;7.30;99.90;;;7.10;70.23;94762.63;5041266;28;20865;-58
2023/12/07 08:16:46;;;;;;;3.60;3.30;;;7.30;99.90;;;7.07;70.28;94768.94;5042364;28;20482;-59
2023/12/07 08:19:13;;;;;;;6.03;3.00;;;7.20;99.90;;;7.06;70.54;94766.44;5035355;28;20535;-59
2023/12/07 08:21:41;;;;;;;4.13;3.13;;;7.20;99.90;;;7.02;69.87;94771.09;5040805;28;20483;-58
2023/12/07 08:24:08;;;;;;;2.63;2.40;;;7.20;99.90;;;6.98;70.64;94774.88;5041562;28;20999;-61
2023/12/07 08:26:35;;;;;;;3.43;3.10;;;7.10;99.90;;;6.94;69.94;94773.44;5035120;28;20499;-62
2023/12/07 08:29:04;;;;;;;2.50;2.23;;;7.10;99.90;;;6.88;70.09;94773.94;5041207;28;20448;-61
2023/12/07 08:31:31;;;;;;;2.83;2.53;;;7.10;99.90;;;6.81;69.80;94778.81;5041547;28;20466;-62
2023/12/07 08:34:00;;;;;;;2.40;2.20;;;7.00;99.90;;;6.76;69.94;94771.34;5034175;28;20492;-60
2023/12/07 08:36:27;;;;;;;2.63;2.43;;;6.90;99.90;;;6.71;69.71;94777.84;5039994;28;20466;-62
2023/12/07 08:38:55;;;;;;;9.40;3.47;;;6.80;99.90;;;6.68;69.81;94784.16;5041550;28;20459;-61
2023/12/07 08:41:23;;;;;;;7.37;2.37;;;6.80;99.90;;;6.67;70.07;94784.28;5035088;28;20452;-58
2023/12/07 08:43:50;;;;;;;2.50;2.30;;;6.80;99.90;;;6.63;69.78;94786.28;5039666;28;20552;-58
2023/12/07 08:46:19;;;;;;;2.63;2.40;;;6.80;99.90;;;6.61;70.50;94785.59;5041551;28;20482;-58
2023/12/07 08:48:46;;;;;;;2.60;2.40;;;6.70;99.90;;;6.58;69.91;94789.28;5039347;28;20522;-59
2023/12/07 08:51:14;;;;;;;6.50;1.73;;;6.80;99.90;;;6.57;70.17;94787.59;5039512;28;20447;-57
2023/12/07 08:53:41;;;;;;;2.23;2.13;;;6.80;99.90;;;6.54;69.80;94794.84;5041134;28;21236;-60
2023/12/07 08:56:09;;;;;;;1.50;1.40;;;6.70;99.90;;;6.50;69.62;94790.81;5038840;28;20868;-60
2023/12/07 08:58:36;;;;;;;1.50;1.40;;;6.70;99.90;;;6.48;70.05;94792.72;5039287;28;21114;-60
2023/12/07 09:01:05;;;;;;;1.90;1.80;;;6.70;99.90;;;6.43;69.94;94791.28;5040767;28;20523;-58
2023/12/07 09:03:34;;;;;;;3.33;1.60;;;6.60;99.90;;;6.42;70.24;94789.59;5038851;28;20535;-58
2023/12/07 09:06:01;;;;;;;1.60;1.50;;;6.60;99.90;;;6.44;70.52;94792.09;5038973;28;20947;-61
2023/12/07 09:08:28;;;;;;;1.80;1.70;;;6.60;99.90;;;6.44;69.80;94790.34;5041337;28;20477;-57
2023/12/07 09:10:55;;;;;;;1.70;1.60;;;6.60;99.90;;;6.42;70.27;94789.59;5039541;28;20460;-59
2023/12/07 09:13:23;;;;;;;1.63;1.53;;;6.60;99.90;;;6.42;70.13;94786.97;5038992;28;21099;-60
2023/12/07 09:15:51;;;;;;;1.80;1.70;;;6.60;99.90;;;6.38;69.67;94796.03;5041434;28;20578;-58
2023/12/07 09:18:18;;;;;;;2.07;1.97;;;6.50;99.90;;;6.36;69.90;94791.84;5039194;28;20473;-58
2023/12/07 09:20:46;;;;;;;1.77;1.67;;;6.50;99.90;;;6.32;70.10;94783.44;5038789;28;20467;-61
2023/12/07 09:23:14;;;;;;;2.20;2.10;;;6.50;99.90;;;6.28;69.84;94789.81;5041063;28;20905;-59
2023/12/07 09:25:42;;;;;;;2.40;2.20;;;6.40;99.90;;;6.24;70.00;94789.22;5039251;28;20544;-60
2023/12/07 09:28:09;;;;;;;3.90;2.07;;;6.40;99.90;;;6.21;70.11;94788.59;5038804;28;20491;-58
2023/12/07 09:30:36;;;;;;;1.70;1.60;;;6.40;99.90;;;6.17;70.42;94784.59;5040814;28;20444;-61
2023/12/07 09:33:04;;;;;;;1.93;1.83;;;6.30;99.90;;;6.09;70.19;94791.19;5037576;28;20468;-60
2023/12/07 09:35:34;;;;;;;2.17;1.97;;;6.30;99.90;;;6.03;70.59;94791.66;5038664;28;20492;-60
2023/12/07 09:38:02;;;;;;;1.90;1.80;;;6.20;99.90;;;6.00;70.40;94785.84;5035047;28;20557;-62
2023/12/07 09:40:31;;;;;;;1.57;1.47;;;6.20;99.90;;;5.99;70.47;94792.00;5040134;28;20447;-59
2023/12/07 09:42:58;;;;;;;1.30;1.20;;;6.20;99.90;;;5.98;70.64;94790.31;5040457;28;20570;-59
2023/12/07 09:45:26;;;;;;;1.87;1.77;;;6.10;99.90;;;5.93;70.34;94799.31;5037899;28;20453;-58
2023/12/07 09:47:54;;;;;;;1.67;1.40;;;6.10;99.90;;;5.92;70.31;94786.38;5039058;28;20487;-59
2023/12/07 09:50:22;;;;;;;4.50;2.00;;;6.10;99.90;;;5.92;70.86;94796.81;5040540;28;20566;-61
2023/12/07 09:52:50;;;;;;;2.07;1.63;;;6.10;99.90;;;5.94;71.11;94797.53;5038153;28;20488;-61
2023/12/07 09:55:19;;;;;;;1.43;1.33;;;6.10;99.90;;;5.95;71.05;94793.97;5038794;28;20550;-58
2023/12/07 09:57:47;;;;;;;1.37;1.27;;;6.10;99.90;;;5.95;70.17;94793.97;5041027;28;20558;-59
2023/12/07 10:00:17;;;;;;;5.80;1.90;;;6.10;99.90;;;5.95;70.79;94791.38;5057888;28;20469;-61
2023/12/07 10:02:46;;;;;;;1.47;1.37;;;6.10;99.90;;;5.95;70.59;94801.81;5057282;28;20475;-59
2023/12/07 10:05:16;;;;;;;1.60;1.50;;;6.10;99.90;;;5.94;70.08;94800.13;5054654;28;20444;-62
2023/12/07 10:07:46;;;;;;;1.90;1.57;;;6.10;99.90;;;5.95;70.69;94800.97;5058613;28;20482;-59
2023/12/07 10:10:13;;;;;;;1.17;1.07;;;6.10;99.90;;;5.90;70.42;94799.53;5060611;28;20454;-59
2023/12/07 10:12:48;;;;;;;1.57;1.47;;;6.10;99.90;;;5.86;70.62;94800.69;5058625;28;20472;-59
2023/12/07 10:15:16;;;;;;;1.13;1.03;;;6.00;99.90;;;5.81;70.73;94795.00;5057588;28;20548;-59
2023/12/07 10:17:48;;;;;;;1.60;1.50;;;6.00;99.90;;;5.80;70.31;94797.72;5059532;28;20471;-62
2023/12/07 10:20:17;;;;;;;1.30;1.20;;;6.00;99.90;;;5.75;70.64;94790.22;5060075;28;20534;-61
2023/12/07 10:22:45;;;;;;;2.40;1.30;;;5.90;99.90;;;5.71;70.64;94789.59;5057028;28;20486;-61
2023/12/07 10:25:12;;;;;;;1.17;1.10;;;5.90;99.90;;;5.68;70.63;94782.00;5059047;28;20455;-59
2023/12/07 10:27:42;;;;;;;3.90;1.57;;;5.90;99.90;;;5.66;70.52;94791.72;5058079;28;20479;-61